createdAt,value
2018-07-30T00:00:27.255Z,43.85
2018-07-30T00:02:54.519Z,44.11
2018-07-30T00:05:21.864Z,43.73
2018-07-30T00:07:49.138Z,43.65
2018-07-30T00:10:16.403Z,44.07
2018-07-30T00:12:43.653Z,43.28
2018-07-30T00:15:10.909Z,43.36
2018-07-30T00:17:40.279Z,42.83
2018-07-30T00:20:09.958Z,42.75
2018-07-30T00:22:37.449Z,42.66
2018-07-30T00:25:04.751Z,43.27
2018-07-30T00:27:32.763Z,43.09
2018-07-30T00:29:59.991Z,44.67
2018-07-30T00:32:27.269Z,44.51
2018-07-30T00:34:54.490Z,45.33
2018-07-30T00:37:21.741Z,45.66
2018-07-30T00:39:48.992Z,46.22
2018-07-30T00:42:16.318Z,46.79
2018-07-30T00:44:44.594Z,47.08
2018-07-30T00:47:11.839Z,47.06
2018-07-30T00:49:39.090Z,47.75
2018-07-30T00:52:06.403Z,47.41
2018-07-30T00:54:33.698Z,47.58
2018-07-30T00:57:00.975Z,47.97
2018-07-30T00:59:28.235Z,48.01
2018-07-30T01:01:55.468Z,48.61
2018-07-30T01:04:22.733Z,48.63
2018-07-30T01:06:49.994Z,48.96
2018-07-30T01:09:17.279Z,48.80
2018-07-30T01:11:44.503Z,49.64
2018-07-30T01:14:14.490Z,49.08
2018-07-30T01:16:41.991Z,50.00
2018-07-30T01:19:09.443Z,50.05
2018-07-30T01:21:36.744Z,50.50
2018-07-30T01:24:04.202Z,50.38
2018-07-30T01:26:32.167Z,51.20
2018-07-30T01:28:59.980Z,51.69
2018-07-30T01:31:27.238Z,51.64
2018-07-30T01:33:54.485Z,52.50
2018-07-30T01:36:21.747Z,52.82
2018-07-30T01:38:49.751Z,52.96
2018-07-30T01:41:17.216Z,53.34
2018-07-30T01:43:44.490Z,53.95
2018-07-30T01:46:11.747Z,54.07
2018-07-30T01:48:38.994Z,54.45
2018-07-30T01:51:06.467Z,55.44
2018-07-30T01:53:34.744Z,55.47
2018-07-30T01:56:01.982Z,56.54
2018-07-30T01:58:29.295Z,56.54
2018-07-30T02:00:56.595Z,56.78
2018-07-30T02:03:23.869Z,58.06
2018-07-30T02:05:51.155Z,59.32
2018-07-30T02:08:18.587Z,60.12
2018-07-30T02:10:45.859Z,60.81
2018-07-30T02:13:13.072Z,61.39
2018-07-30T02:15:40.344Z,61.16
2018-07-30T02:18:07.564Z,61.30
2018-07-30T02:20:34.899Z,61.04
2018-07-30T02:23:02.227Z,61.08
2018-07-30T02:25:29.558Z,61.43
2018-07-30T02:27:56.852Z,60.83
2018-07-30T02:30:24.176Z,60.80
2018-07-30T02:32:51.437Z,61.40
2018-07-30T02:35:18.722Z,61.64
2018-07-30T02:37:46.040Z,61.80
2018-07-30T02:40:13.428Z,61.88
2018-07-30T02:42:40.757Z,62.17
2018-07-30T02:45:08.111Z,62.34
2018-07-30T02:47:35.516Z,62.21
2018-07-30T02:50:03.025Z,62.57
2018-07-30T02:52:30.655Z,63.02
2018-07-30T02:54:57.914Z,62.94
2018-07-30T02:57:25.176Z,63.11
2018-07-30T02:59:52.555Z,63.50
2018-07-30T03:02:36.738Z,63.65
2018-07-30T03:05:04.463Z,63.76
2018-07-30T03:07:31.774Z,64.25
2018-07-30T03:09:59.963Z,64.49
2018-07-30T03:12:27.279Z,64.55
2018-07-30T03:14:54.610Z,64.38
2018-07-30T03:17:21.901Z,64.29
2018-07-30T03:19:50.406Z,65.09
2018-07-30T03:22:18.789Z,65.16
2018-07-30T03:24:47.518Z,65.44
2018-07-30T03:27:14.885Z,65.20
2018-07-30T03:29:42.215Z,65.03
2018-07-30T03:32:09.654Z,65.33
2018-07-30T03:34:36.996Z,65.47
2018-07-30T03:37:04.515Z,65.66
2018-07-30T03:39:33.178Z,65.49
2018-07-30T03:42:00.510Z,65.50
2018-07-30T03:44:27.920Z,65.61
2018-07-30T03:46:55.288Z,66.40
2018-07-30T03:49:22.701Z,66.46
2018-07-30T03:51:50.128Z,66.66
2018-07-30T03:54:19.674Z,66.35
2018-07-30T03:56:47.195Z,66.30
2018-07-30T03:59:14.564Z,66.39
2018-07-30T04:01:41.957Z,66.60
2018-07-30T04:04:09.455Z,66.53
2018-07-30T04:06:36.812Z,66.76
2018-07-30T04:09:06.167Z,67.00
2018-07-30T04:11:33.548Z,66.85
2018-07-30T04:14:00.896Z,66.92
2018-07-30T04:16:28.386Z,67.17
2018-07-30T04:18:55.755Z,67.09
2018-07-30T04:21:24.202Z,66.90
2018-07-30T04:23:51.598Z,66.50
2018-07-30T04:26:19.002Z,66.69
2018-07-30T04:28:46.343Z,67.05
2018-07-30T04:31:13.702Z,67.14
2018-07-30T04:33:41.072Z,67.12
2018-07-30T04:36:08.482Z,66.93
2018-07-30T04:38:35.959Z,66.77
2018-07-30T04:41:03.516Z,66.37
2018-07-30T04:43:30.848Z,66.18
2018-07-30T04:45:58.209Z,65.89
2018-07-30T04:48:27.602Z,65.06
2018-07-30T04:50:54.998Z,64.70
2018-07-30T04:53:22.318Z,63.80
2018-07-30T04:55:49.842Z,63.39
2018-07-30T04:58:17.228Z,63.17
2018-07-30T05:00:44.608Z,61.90
2018-07-30T05:03:11.919Z,61.17
2018-07-30T05:05:39.307Z,60.38
2018-07-30T05:08:06.672Z,59.96
2018-07-30T05:10:34.823Z,59.54
2018-07-30T05:13:02.221Z,58.59
2018-07-30T05:15:29.601Z,58.17
2018-07-30T05:17:56.866Z,57.84
2018-07-30T05:20:24.197Z,56.31
2018-07-30T05:22:51.563Z,55.85
2018-07-30T05:25:19.039Z,55.67
2018-07-30T05:27:46.398Z,55.08
2018-07-30T05:30:13.764Z,54.31
2018-07-30T05:32:41.108Z,53.58
2018-07-30T05:35:08.492Z,53.19
2018-07-30T05:37:36.799Z,52.85
2018-07-30T05:40:04.653Z,51.04
2018-07-30T05:42:32.138Z,50.29
2018-07-30T05:44:59.513Z,49.47
2018-07-30T05:47:27.405Z,48.75
2018-07-30T05:49:55.277Z,48.35
2018-07-30T05:52:22.623Z,46.72
2018-07-30T05:54:49.976Z,45.47
2018-07-30T05:57:17.379Z,45.03
2018-07-30T05:59:45.219Z,43.64
2018-07-30T06:02:12.613Z,43.33
2018-07-30T06:04:40.046Z,42.28
2018-07-30T06:07:07.935Z,41.65
2018-07-30T06:09:35.738Z,41.84
2018-07-30T06:12:03.253Z,41.25
2018-07-30T06:14:30.616Z,39.39
2018-07-30T06:16:57.995Z,38.77
2018-07-30T06:19:25.583Z,38.53
2018-07-30T06:21:52.966Z,38.06
2018-07-30T06:24:20.474Z,38.25
2018-07-30T06:26:48.002Z,39.66
2018-07-30T06:29:15.353Z,39.50
2018-07-30T06:31:42.766Z,39.51
2018-07-30T06:34:10.136Z,39.46
2018-07-30T06:36:37.519Z,39.43
2018-07-30T06:39:07.086Z,39.13
2018-07-30T06:41:35.323Z,39.14
2018-07-30T06:44:02.891Z,39.27
2018-07-30T06:46:30.492Z,39.67
2018-07-30T06:48:57.865Z,39.97
2018-07-30T06:51:25.229Z,39.53
2018-07-30T06:53:54.289Z,39.83
2018-07-30T06:56:21.760Z,38.95
2018-07-30T06:58:49.141Z,38.51
2018-07-30T07:01:16.645Z,38.80
2018-07-30T07:03:44.246Z,38.75
2018-07-30T07:06:11.619Z,38.71
2018-07-30T07:08:38.941Z,38.34
2018-07-30T07:11:06.526Z,37.75
2018-07-30T07:13:36.070Z,37.83
2018-07-30T07:16:03.536Z,35.88
2018-07-30T07:18:31.019Z,35.69
2018-07-30T07:20:58.521Z,35.45
2018-07-30T07:23:25.923Z,35.46
2018-07-30T07:25:53.274Z,34.79
2018-07-30T07:28:20.897Z,34.34
2018-07-30T07:30:48.253Z,33.72
2018-07-30T07:33:15.719Z,33.70
2018-07-30T07:35:43.115Z,34.31
2018-07-30T07:38:10.633Z,30.57
2018-07-30T07:40:38.090Z,30.35
2018-07-30T07:43:05.548Z,29.77
2018-07-30T07:45:33.063Z,29.98
2018-07-30T07:48:00.780Z,29.67
2018-07-30T07:50:28.439Z,30.03
2018-07-30T07:52:55.819Z,30.05
2018-07-30T07:55:23.385Z,30.49
2018-07-30T07:57:50.797Z,29.84
2018-07-30T08:00:18.296Z,26.95
2018-07-30T08:02:45.791Z,26.10
2018-07-30T08:05:13.144Z,25.72
2018-07-30T08:07:40.506Z,25.79
2018-07-30T08:10:08.433Z,25.17
2018-07-30T08:12:35.964Z,24.84
2018-07-30T08:15:03.478Z,23.83
2018-07-30T08:17:30.832Z,23.86
2018-07-30T08:19:58.235Z,26.01
2018-07-30T08:22:25.626Z,26.94
2018-07-30T08:24:52.976Z,28.57
2018-07-30T08:27:20.386Z,30.19
2018-07-30T08:29:47.690Z,30.01
2018-07-30T08:32:15.112Z,30.80
2018-07-30T08:34:42.468Z,29.84
2018-07-30T08:37:09.855Z,30.18
2018-07-30T08:39:37.331Z,30.38
2018-07-30T08:42:04.862Z,29.90
2018-07-30T08:44:32.872Z,30.69
2018-07-30T08:47:00.364Z,30.34
2018-07-30T08:49:27.871Z,31.48
2018-07-30T08:51:55.200Z,30.71
2018-07-30T08:54:22.728Z,30.55
2018-07-30T08:56:50.258Z,30.35
2018-07-30T08:59:17.713Z,30.43
2018-07-30T09:01:45.111Z,28.03
2018-07-30T09:04:12.545Z,27.90
2018-07-30T09:06:40.224Z,26.17
2018-07-30T09:09:08.938Z,25.82
2018-07-30T09:11:36.780Z,23.47
2018-07-30T09:14:04.198Z,23.98
2018-07-30T09:16:31.575Z,23.61
2018-07-30T09:18:58.984Z,22.11
2018-07-30T09:21:26.291Z,22.83
2018-07-30T09:23:53.744Z,22.80
2018-07-30T09:26:21.129Z,22.51
2018-07-30T09:28:48.510Z,20.58
2018-07-30T09:31:16.058Z,20.69
2018-07-30T09:33:43.469Z,21.69
2018-07-30T09:36:10.864Z,20.55
2018-07-30T09:38:39.630Z,22.17
2018-07-30T09:41:07.207Z,20.34
2018-07-30T09:43:34.902Z,21.52
2018-07-30T09:46:02.757Z,21.75
2018-07-30T09:48:30.206Z,20.76
2018-07-30T09:50:57.711Z,20.16
2018-07-30T09:53:25.088Z,20.28
2018-07-30T09:55:53.007Z,19.33
2018-07-30T09:58:20.366Z,18.50
2018-07-30T10:00:53.166Z,18.92
2018-07-30T10:03:20.560Z,17.45
2018-07-30T10:05:48.055Z,16.84
2018-07-30T10:08:15.410Z,16.66
2018-07-30T10:10:42.772Z,16.51
2018-07-30T10:13:10.173Z,16.38
2018-07-30T10:15:37.546Z,17.44
2018-07-30T10:18:05.460Z,17.61
2018-07-30T10:20:32.786Z,17.29
2018-07-30T10:23:00.120Z,15.78
2018-07-30T10:25:27.468Z,15.69
2018-07-30T10:27:54.845Z,15.75
2018-07-30T10:30:22.207Z,16.15
2018-07-30T10:32:49.609Z,15.60
2018-07-30T10:35:16.978Z,15.59
2018-07-30T10:37:44.267Z,14.50
2018-07-30T10:40:11.748Z,14.96
2018-07-30T10:42:39.074Z,14.95
2018-07-30T10:45:06.461Z,15.05
2018-07-30T10:47:33.847Z,15.09
2018-07-30T10:50:01.525Z,15.15
2018-07-30T10:52:28.850Z,15.86
2018-07-30T10:54:56.226Z,16.61
2018-07-30T10:57:23.615Z,16.08
2018-07-30T10:59:51.026Z,16.46
2018-07-30T11:02:18.386Z,16.36
2018-07-30T11:04:45.785Z,15.12
2018-07-30T11:07:13.148Z,14.87
2018-07-30T11:09:40.624Z,14.97
2018-07-30T11:12:07.911Z,15.46
2018-07-30T11:14:35.264Z,15.60
2018-07-30T11:17:02.759Z,15.17
2018-07-30T11:19:30.331Z,15.78
2018-07-30T11:21:57.781Z,15.99
2018-07-30T11:24:25.180Z,15.53
2018-07-30T11:26:52.707Z,15.31
2018-07-30T11:29:20.113Z,15.34
2018-07-30T11:31:47.750Z,15.17
2018-07-30T11:34:15.112Z,15.65
2018-07-30T11:36:42.439Z,15.19
2018-07-30T11:39:11.393Z,15.22
2018-07-30T11:41:38.712Z,15.12
2018-07-30T11:44:06.415Z,14.70
2018-07-30T11:46:33.799Z,15.13
2018-07-30T11:49:01.230Z,14.92
2018-07-30T11:51:28.535Z,14.96
2018-07-30T11:53:56.036Z,14.41
2018-07-30T11:56:23.392Z,14.29
2018-07-30T11:58:50.803Z,14.08
2018-07-30T12:01:18.211Z,14.03
2018-07-30T12:03:45.543Z,12.66
2018-07-30T12:06:12.900Z,12.48
2018-07-30T12:08:40.231Z,13.37
2018-07-30T12:11:07.799Z,13.96
2018-07-30T12:13:35.217Z,14.03
2018-07-30T12:16:25.897Z,13.13
2018-07-30T12:18:53.262Z,12.15
2018-07-30T12:21:20.669Z,12.10
2018-07-30T12:23:48.187Z,12.13
2018-07-30T12:26:15.579Z,12.61
2018-07-30T12:28:42.950Z,12.27
2018-07-30T12:31:10.358Z,11.65
2018-07-30T12:33:37.732Z,12.53
2018-07-30T12:36:05.212Z,12.72
2018-07-30T12:38:32.889Z,13.62
2018-07-30T12:41:00.293Z,13.69
2018-07-30T12:43:29.801Z,13.69
2018-07-30T12:45:57.466Z,13.32
2018-07-30T12:48:24.922Z,13.90
2018-07-30T12:50:52.497Z,13.47
2018-07-30T12:53:20.037Z,14.11
2018-07-30T12:55:47.554Z,14.41
2018-07-30T12:58:14.864Z,15.21
2018-07-30T13:00:42.254Z,15.18
2018-07-30T13:03:09.692Z,16.25
2018-07-30T13:05:37.122Z,15.26
2018-07-30T13:08:04.477Z,15.05
2018-07-30T13:10:33.814Z,13.34
2018-07-30T13:13:01.194Z,13.59
2018-07-30T13:15:28.602Z,14.05
2018-07-30T13:17:56.122Z,14.95
2018-07-30T13:20:23.506Z,15.46
2018-07-30T13:23:02.536Z,14.99
2018-07-30T13:25:30.162Z,15.29
2018-07-30T13:27:57.549Z,14.74
2018-07-30T13:30:24.872Z,13.87
2018-07-30T13:32:52.287Z,13.93
2018-07-30T13:35:19.724Z,14.25
2018-07-30T13:37:47.163Z,14.09
2018-07-30T13:40:14.577Z,14.45
2018-07-30T13:42:42.001Z,14.29
2018-07-30T13:45:09.536Z,13.91
2018-07-30T13:47:37.110Z,14.61
2018-07-30T13:50:05.577Z,14.50
2018-07-30T13:52:33.207Z,14.21
2018-07-30T13:55:01.267Z,14.76
2018-07-30T13:57:29.565Z,13.89
2018-07-30T13:59:57.661Z,14.38
2018-07-30T14:02:25.118Z,14.72
2018-07-30T14:04:52.504Z,14.93
2018-07-30T14:07:20.098Z,14.80
2018-07-30T14:09:49.370Z,14.96
2018-07-30T14:12:49.219Z,15.74
2018-07-30T14:15:18.137Z,15.78
2018-07-30T14:17:45.636Z,16.22
2018-07-30T14:20:13.070Z,17.11
2018-07-30T14:22:40.529Z,17.10
2018-07-30T14:25:08.017Z,17.27
2018-07-30T14:27:35.422Z,17.39
2018-07-30T14:30:03.509Z,17.68
2018-07-30T14:32:30.936Z,18.61
2018-07-30T14:34:58.495Z,18.63
2018-07-30T14:37:26.094Z,18.12
2018-07-30T14:39:53.511Z,18.62
2018-07-30T14:42:21.127Z,18.24
2018-07-30T14:44:48.563Z,18.57
2018-07-30T14:47:28.120Z,18.99
2018-07-30T14:50:00.359Z,18.91
2018-07-30T14:52:28.148Z,19.36
2018-07-30T14:54:55.854Z,19.56
2018-07-30T14:57:23.286Z,18.65
2018-07-30T14:59:53.745Z,18.68
2018-07-30T15:02:21.268Z,19.13
2018-07-30T15:04:48.668Z,19.33
2018-07-30T15:07:16.275Z,18.93
2018-07-30T15:09:43.768Z,19.07
2018-07-30T15:12:11.378Z,19.07
2018-07-30T15:14:38.747Z,18.68
2018-07-30T15:17:06.307Z,18.94
2018-07-30T15:19:34.110Z,19.31
2018-07-30T15:22:01.599Z,19.36
2018-07-30T15:24:29.097Z,19.53
2018-07-30T15:26:58.023Z,20.43
2018-07-30T15:29:25.604Z,20.71
2018-07-30T15:31:53.353Z,20.42
2018-07-30T15:34:20.842Z,20.46
2018-07-30T15:36:48.265Z,20.69
2018-07-30T15:39:15.559Z,20.17
2018-07-30T15:41:42.859Z,20.31
2018-07-30T15:44:10.105Z,19.76
2018-07-30T15:46:37.513Z,20.62
2018-07-30T15:49:04.884Z,20.46
2018-07-30T15:51:32.153Z,20.28
2018-07-30T15:53:59.495Z,20.70
2018-07-30T15:56:27.096Z,20.32
2018-07-30T15:58:54.473Z,20.51
2018-07-30T16:01:21.742Z,20.61
2018-07-30T16:03:49.022Z,20.84
2018-07-30T16:06:16.308Z,20.99
2018-07-30T16:08:43.574Z,20.72
2018-07-30T16:11:10.897Z,21.03
2018-07-30T16:13:38.289Z,20.76
2018-07-30T16:16:06.035Z,21.93
2018-07-30T16:18:33.738Z,22.06
2018-07-30T16:21:01.168Z,21.78
2018-07-30T16:23:29.053Z,21.20
2018-07-30T16:25:56.686Z,22.07
2018-07-30T16:28:24.644Z,22.46
2018-07-30T16:30:52.340Z,22.02
2018-07-30T16:33:20.818Z,21.63
2018-07-30T16:35:48.670Z,21.71
2018-07-30T16:38:16.188Z,21.84
2018-07-30T16:40:43.683Z,22.26
2018-07-30T16:43:11.304Z,21.21
2018-07-30T16:45:38.694Z,22.20
2018-07-30T16:48:06.574Z,21.53
2018-07-30T16:50:40.673Z,21.86
2018-07-30T16:53:08.281Z,21.90
2018-07-30T16:55:35.605Z,22.16
2018-07-30T16:58:03.551Z,22.59
2018-07-30T17:00:30.917Z,22.25
2018-07-30T17:02:58.280Z,22.94
2018-07-30T17:05:25.916Z,23.57
2018-07-30T17:07:53.406Z,23.22
2018-07-30T17:10:20.792Z,23.86
2018-07-30T17:12:48.219Z,24.02
2018-07-30T17:15:15.664Z,24.38
2018-07-30T17:17:43.153Z,23.80
2018-07-30T17:20:12.218Z,24.67
2018-07-30T17:22:40.018Z,24.53
2018-07-30T17:25:07.288Z,24.57
2018-07-30T17:27:34.553Z,23.90
2018-07-30T17:30:01.871Z,24.35
2018-07-30T17:32:29.119Z,24.68
2018-07-30T17:34:56.684Z,24.30
2018-07-30T17:37:24.002Z,24.24
2018-07-30T17:39:51.865Z,24.34
2018-07-30T17:42:20.403Z,24.74
2018-07-30T17:44:47.726Z,24.50
2018-07-30T17:47:15.927Z,24.99
2018-07-30T17:49:47.304Z,25.31
2018-07-30T17:52:15.924Z,25.07
2018-07-30T17:54:43.364Z,25.40
2018-07-30T17:57:10.878Z,26.02
2018-07-30T17:59:38.751Z,25.82
2018-07-30T18:02:06.335Z,25.88
2018-07-30T18:04:34.111Z,26.54
2018-07-30T18:07:01.687Z,26.30
2018-07-30T18:09:29.825Z,26.28
2018-07-30T18:11:57.595Z,26.01
2018-07-30T18:14:26.177Z,26.14
2018-07-30T18:16:54.575Z,26.92
2018-07-30T18:19:22.824Z,27.16
2018-07-30T18:21:51.296Z,28.10
2018-07-30T18:24:21.772Z,28.80
2018-07-30T18:26:50.393Z,29.34
2018-07-30T18:29:20.160Z,29.19
2018-07-30T18:31:48.321Z,28.97
2018-07-30T18:34:16.848Z,29.21
2018-07-30T18:36:45.253Z,29.63
2018-07-30T18:39:14.118Z,29.61
2018-07-30T18:41:42.465Z,30.20
2018-07-30T18:44:10.714Z,30.15
2018-07-30T18:46:39.400Z,30.06
2018-07-30T18:49:07.787Z,30.58
2018-07-30T18:51:37.001Z,30.65
2018-07-30T18:54:05.853Z,32.30
2018-07-30T18:56:34.123Z,32.35
2018-07-30T18:59:01.575Z,33.90
2018-07-30T19:01:29.233Z,33.76
2018-07-30T19:03:56.708Z,33.87
2018-07-30T19:06:24.832Z,33.94
2018-07-30T19:08:52.641Z,33.58
2018-07-30T19:11:20.432Z,33.44
2018-07-30T19:13:48.054Z,33.96
2018-07-30T19:16:15.685Z,33.80
2018-07-30T19:18:43.186Z,33.78
2018-07-30T19:21:10.831Z,33.63
2018-07-30T19:23:38.312Z,34.07
2018-07-30T19:26:06.020Z,33.99
2018-07-30T19:28:33.528Z,33.87
2018-07-30T19:31:01.025Z,33.60
2018-07-30T19:33:28.416Z,34.12
2018-07-30T19:35:57.274Z,34.05
2018-07-30T19:38:24.982Z,33.86
2018-07-30T19:40:52.652Z,33.71
2018-07-30T19:43:20.290Z,33.95
2018-07-30T19:45:47.774Z,33.88
2018-07-30T19:48:15.283Z,33.80
2018-07-30T19:50:43.113Z,33.91
2018-07-30T19:53:11.170Z,33.43
2018-07-30T19:55:38.905Z,33.30
2018-07-30T19:58:06.559Z,33.54
2018-07-30T20:00:33.722Z,33.63
2018-07-30T20:03:04.111Z,33.23
2018-07-30T20:05:38.123Z,33.60
2018-07-30T20:08:05.469Z,33.14
2018-07-30T20:10:32.830Z,33.58
2018-07-30T20:13:00.104Z,33.54
2018-07-30T20:15:27.455Z,33.45
2018-07-30T20:17:54.821Z,33.50
2018-07-30T20:20:22.151Z,33.51
2018-07-30T20:22:49.541Z,33.51
2018-07-30T20:25:16.886Z,33.57
2018-07-30T20:27:44.261Z,33.54
2018-07-30T20:30:11.660Z,33.23
2018-07-30T20:32:38.976Z,33.84
2018-07-30T20:35:07.529Z,34.05
2018-07-30T20:37:35.029Z,33.83
2018-07-30T20:40:02.368Z,33.63
2018-07-30T20:42:29.787Z,33.99
2018-07-30T20:44:57.179Z,33.56
2018-07-30T20:47:29.018Z,33.53
2018-07-30T20:50:20.435Z,33.48
2018-07-30T20:52:49.681Z,33.33
2018-07-30T20:55:17.216Z,33.48
2018-07-30T20:57:44.487Z,33.53
2018-07-30T21:00:12.069Z,33.72
2018-07-30T21:02:39.516Z,33.95
2018-07-30T21:05:06.774Z,34.25
2018-07-30T21:07:34.144Z,33.79
2018-07-30T21:10:01.487Z,34.58
2018-07-30T21:12:28.824Z,34.32
2018-07-30T21:14:56.105Z,34.91
2018-07-30T21:17:23.428Z,34.71
2018-07-30T21:19:50.715Z,34.94
2018-07-30T21:22:17.998Z,35.37
2018-07-30T21:24:45.340Z,35.70
2018-07-30T21:27:12.742Z,35.94
2018-07-30T21:29:40.027Z,35.55
2018-07-30T21:32:07.322Z,36.29
2018-07-30T21:34:34.588Z,36.19
2018-07-30T21:37:01.942Z,36.42
2018-07-30T21:39:29.269Z,37.01
2018-07-30T21:41:56.630Z,37.19
2018-07-30T21:44:23.936Z,36.84
2018-07-30T21:46:51.309Z,37.44
2018-07-30T21:49:25.314Z,37.33
2018-07-30T21:51:52.643Z,37.63
2018-07-30T21:54:19.975Z,37.29
2018-07-30T21:56:47.257Z,37.47
2018-07-30T21:59:14.544Z,37.38
2018-07-30T22:01:41.894Z,37.73
2018-07-30T22:04:09.187Z,37.64
2018-07-30T22:06:36.478Z,38.02
2018-07-30T22:09:05.811Z,38.17
2018-07-30T22:11:33.120Z,38.09
2018-07-30T22:14:00.455Z,38.21
2018-07-30T22:16:27.772Z,38.25
2018-07-30T22:18:55.001Z,38.72
2018-07-30T22:21:22.306Z,38.59
2018-07-30T22:23:49.598Z,38.42
2018-07-30T22:26:16.918Z,38.48
2018-07-30T22:28:44.203Z,38.72
2018-07-30T22:31:11.514Z,38.83
2018-07-30T22:33:38.773Z,39.39
2018-07-30T22:36:06.103Z,39.48
2018-07-30T22:38:33.414Z,39.66
2018-07-30T22:41:00.699Z,40.17
2018-07-30T22:43:27.966Z,40.12
2018-07-30T22:45:55.299Z,40.25
2018-07-30T22:48:22.562Z,40.14
2018-07-30T22:50:49.826Z,40.56
2018-07-30T22:53:17.133Z,40.13
2018-07-30T22:55:44.422Z,40.58
2018-07-30T22:58:11.703Z,40.66
2018-07-30T23:00:39.009Z,40.42
2018-07-30T23:03:06.299Z,39.92
2018-07-30T23:05:33.579Z,39.90
2018-07-30T23:08:00.906Z,39.79
2018-07-30T23:10:28.438Z,39.94
2018-07-30T23:13:06.256Z,39.96
2018-07-30T23:15:44.288Z,39.43
2018-07-30T23:18:11.614Z,39.13
2018-07-30T23:20:38.859Z,39.42
2018-07-30T23:23:06.163Z,39.10
2018-07-30T23:25:33.447Z,39.72
2018-07-30T23:28:00.760Z,39.82
2018-07-30T23:30:28.063Z,41.17
2018-07-30T23:32:55.429Z,42.08
2018-07-30T23:35:22.707Z,42.37
2018-07-30T23:37:49.979Z,42.71
2018-07-30T23:40:17.264Z,42.82
2018-07-30T23:42:44.531Z,43.00
2018-07-30T23:45:11.859Z,42.54
2018-07-30T23:47:39.166Z,42.69
2018-07-30T23:50:07.425Z,43.68
2018-07-30T23:52:34.763Z,44.61
2018-07-30T23:55:02.392Z,44.65
2018-07-30T23:57:29.504Z,45.20
2018-07-30T23:59:56.836Z,45.35
